createdAt,value
2023-04-29T00:03:26.954Z,11.5625
2023-04-29T00:08:27.760Z,11.5625
2023-04-29T00:13:28.773Z,11.5
2023-04-29T00:18:29.744Z,11.375
2023-04-29T00:23:30.858Z,11.375
2023-04-29T00:28:31.605Z,11.25
2023-04-29T00:33:32.412Z,11.3125
2023-04-29T00:38:33.581Z,11.3125
2023-04-29T00:43:34.452Z,11.3125
2023-04-29T00:48:35.539Z,11.3125
2023-04-29T00:53:36.746Z,11.4375
2023-04-29T00:58:37.668Z,11.375
2023-04-29T01:03:38.755Z,10.5625
2023-04-29T01:08:39.474Z,9.9375
2023-04-29T01:13:40.392Z,9.9375
2023-04-29T01:18:41.363Z,9.9375
2023-04-29T01:23:42.484Z,10.0625
2023-04-29T01:28:43.574Z,10.125
2023-04-29T01:33:44.691Z,10.0625
2023-04-29T01:38:45.780Z,9.9375
2023-04-29T01:43:46.781Z,9.9375
2023-04-29T01:48:47.690Z,9.9375
2023-04-29T01:53:48.617Z,9.9375
2023-04-29T01:58:49.338Z,9.9375
2023-04-29T02:03:50.477Z,9.9375
2023-04-29T02:08:51.290Z,9.9375
2023-04-29T02:13:52.128Z,10
2023-04-29T02:18:52.973Z,10
2023-04-29T02:23:53.793Z,9.9375
2023-04-29T02:28:54.842Z,9.875
2023-04-29T02:33:55.854Z,10
2023-04-29T02:38:56.748Z,10
2023-04-29T02:43:57.667Z,10
2023-04-29T02:48:58.609Z,10.0625
2023-04-29T02:53:59.846Z,10.0625
2023-04-29T02:59:00.798Z,10.0625
2023-04-29T03:04:01.826Z,10.0625
2023-04-29T03:09:02.610Z,10.125
2023-04-29T03:14:03.582Z,10.125
2023-04-29T03:19:04.624Z,10.1875
2023-04-29T03:24:05.611Z,10.1875
2023-04-29T03:29:06.519Z,10.3125
2023-04-29T03:34:07.420Z,10.3125
2023-04-29T03:39:08.635Z,10.375
2023-04-29T03:44:09.602Z,10.375
2023-04-29T03:49:10.567Z,10.3125
2023-04-29T03:54:11.692Z,10.375
2023-04-29T03:59:12.540Z,10.4375
2023-04-29T04:04:13.692Z,10.4375
2023-04-29T04:09:14.408Z,10.5
2023-04-29T04:14:15.301Z,10.5625
2023-04-29T04:19:16.266Z,10.5625
2023-04-29T04:24:17.225Z,10.625
2023-04-29T04:29:18.192Z,10.625
2023-04-29T04:34:19.236Z,10.6875
2023-04-29T04:39:20.154Z,10.6875
2023-04-29T04:44:20.967Z,10.75
2023-04-29T04:49:21.955Z,10.8125
2023-04-29T04:54:23.728Z,10.8125
2023-04-29T04:59:23.963Z,10.8125
2023-04-29T05:04:25.211Z,10.875
2023-04-29T05:09:25.949Z,10.8125
2023-04-29T05:14:26.868Z,10.875
2023-04-29T05:19:27.762Z,10.875
2023-04-29T05:24:28.894Z,11
2023-04-29T05:29:29.725Z,11.0625
2023-04-29T05:34:30.754Z,11.125
2023-04-29T05:39:32.043Z,11.1875
2023-04-29T05:44:33.077Z,11.25
2023-04-29T05:49:34.047Z,11.25
2023-04-29T05:54:35.095Z,11.3125
2023-04-29T05:59:36.023Z,11.375
2023-04-29T06:04:37.296Z,11.375
2023-04-29T06:09:38.018Z,11.375
2023-04-29T06:14:38.876Z,11.4375
2023-04-29T06:19:39.893Z,11.4375
2023-04-29T06:24:40.800Z,11.5
2023-04-29T06:29:41.697Z,11.5
2023-04-29T06:34:42.640Z,11.5
2023-04-29T06:39:43.709Z,11.5
2023-04-29T06:44:44.671Z,11.5
2023-04-29T06:49:45.693Z,11.4375
2023-04-29T06:54:47.529Z,11.5
2023-04-29T06:59:47.650Z,11.4375
2023-04-29T07:04:48.629Z,11.375
2023-04-29T07:09:49.435Z,11.3125
2023-04-29T07:14:50.620Z,11.25
2023-04-29T07:19:51.857Z,11.1875
2023-04-29T07:24:52.837Z,11.125
2023-04-29T07:29:53.778Z,11.25
2023-04-29T07:34:54.801Z,11.125
2023-04-29T07:39:55.462Z,11.0625
2023-04-29T07:44:56.499Z,11.1875
2023-04-29T07:49:57.298Z,11.1875
2023-04-29T07:54:58.435Z,11.0625
2023-04-29T07:59:59.491Z,11.0625
2023-04-29T08:05:00.889Z,11.0625
2023-04-29T08:10:01.348Z,10.9375
2023-04-29T08:15:02.223Z,10.8125
2023-04-29T08:20:03.304Z,10.875
2023-04-29T08:25:04.148Z,10.8125
2023-04-29T08:30:05.272Z,10.875
2023-04-29T08:35:06.296Z,10.8125
2023-04-29T08:40:07.112Z,10.875
2023-04-29T08:45:08.168Z,10.9375
2023-04-29T08:50:09.199Z,10.8125
2023-04-29T08:55:10.856Z,10.8125
2023-04-29T09:00:11.144Z,10.8125
2023-04-29T09:05:11.994Z,10.9375
2023-04-29T09:10:12.831Z,10.9375
2023-04-29T09:15:13.803Z,11
2023-04-29T09:20:14.738Z,10.9375
2023-04-29T09:25:15.640Z,10.8125
2023-04-29T09:30:16.724Z,10.8125
2023-04-29T09:35:17.503Z,10.625
2023-04-29T09:40:18.607Z,10.625
2023-04-29T09:45:19.575Z,10.5625
2023-04-29T09:50:20.611Z,10.5
2023-04-29T09:55:21.702Z,10.625
2023-04-29T10:00:22.507Z,10.5
2023-04-29T10:05:23.663Z,10.5625
2023-04-29T10:10:24.570Z,10.5625
2023-04-29T10:15:25.447Z,10.6875
2023-04-29T10:20:26.470Z,10.6875
2023-04-29T10:25:27.325Z,10.75
2023-04-29T10:30:28.454Z,10.9375
2023-04-29T10:35:29.393Z,10.875
2023-04-29T10:40:30.717Z,10.9375
2023-04-29T10:45:31.299Z,10.8125
2023-04-29T10:50:32.083Z,10.8125
2023-04-29T10:55:33.074Z,10.8125
2023-04-29T11:00:34.073Z,11
2023-04-29T11:05:35.027Z,11.0625
2023-04-29T11:10:36.059Z,11.625
2023-04-29T11:15:36.852Z,11.75
2023-04-29T11:20:37.816Z,12.125
2023-04-29T11:25:39.565Z,12.5
2023-04-29T11:30:39.800Z,12.25
2023-04-29T11:35:40.486Z,12.1875
2023-04-29T11:40:41.364Z,12.4375
2023-04-29T11:45:42.574Z,12.5
2023-04-29T11:50:43.397Z,12.4375
2023-04-29T11:55:44.567Z,13.125
2023-04-29T12:00:45.386Z,12.9375
2023-04-29T12:05:46.456Z,12.9375
2023-04-29T12:10:47.535Z,13.125
2023-04-29T12:15:48.653Z,13.0625
2023-04-29T12:20:49.615Z,12.6875
2023-04-29T12:25:50.717Z,12.9375
2023-04-29T12:30:51.776Z,13.3125
2023-04-29T12:35:52.728Z,13.25
2023-04-29T12:40:53.563Z,13.25
2023-04-29T12:45:54.390Z,13.875
2023-04-29T12:50:55.317Z,14.1875
2023-04-29T12:55:56.977Z,14.1875
2023-04-29T13:00:57.309Z,14.3125
2023-04-29T13:05:58.181Z,14.3125
2023-04-29T13:10:59.201Z,14.25
2023-04-29T13:16:00.251Z,14.25
2023-04-29T13:21:02.629Z,14
2023-04-29T13:26:02.045Z,14.1875
2023-04-29T13:31:02.852Z,14.375
2023-04-29T13:36:03.874Z,14.375
2023-04-29T13:41:07.548Z,14.5
2023-04-29T13:46:07.581Z,14.375
2023-04-29T13:51:45.480Z,14.5
2023-04-29T14:01:26.015Z,14.25
2023-04-29T14:06:09.428Z,14
2023-04-29T14:11:10.488Z,14
2023-04-29T14:16:11.476Z,13.8125
2023-04-29T14:21:12.426Z,14.0625
2023-04-29T14:31:14.382Z,14.0625
2023-04-29T14:36:15.313Z,14.5625
2023-04-29T14:41:16.182Z,14.625
2023-04-29T14:46:17.276Z,14.5
2023-04-29T14:51:18.013Z,14.6875
2023-04-29T14:56:19.437Z,14.5625
2023-04-29T15:01:19.758Z,14.25
2023-04-29T15:06:20.948Z,14.375
2023-04-29T15:11:21.840Z,14.3125
2023-04-29T15:16:22.727Z,14.1875
2023-04-29T15:21:23.684Z,14.0625
2023-04-29T15:26:24.590Z,14.125
2023-04-29T15:31:26.211Z,14.1875
2023-04-29T15:36:26.564Z,14.3125
2023-04-29T15:41:27.533Z,14.375
2023-04-29T15:46:28.590Z,14.375
2023-04-29T15:51:29.449Z,14.3125
2023-04-29T15:56:31.037Z,14.1875
2023-04-29T16:01:31.255Z,14.125
2023-04-29T16:06:32.011Z,13.9375
2023-04-29T16:11:32.856Z,14
2023-04-29T16:16:33.491Z,14
2023-04-29T16:21:34.462Z,14
2023-04-29T16:26:35.363Z,14.0625
2023-04-29T16:31:36.534Z,14.125
2023-04-29T16:36:37.659Z,14.1875
2023-04-29T16:41:38.697Z,14.25
2023-04-29T16:46:39.686Z,14.3125
2023-04-29T16:51:40.724Z,14.25
2023-04-29T16:56:41.735Z,14.25
2023-04-29T17:01:42.495Z,14.125
2023-04-29T17:06:43.520Z,13.9375
2023-04-29T17:11:44.367Z,13.6875
2023-04-29T17:16:45.399Z,13.75
2023-04-29T17:21:46.349Z,13.8125
2023-04-29T17:26:47.190Z,14
2023-04-29T17:31:48.337Z,14.125
2023-04-29T17:36:49.343Z,14
2023-04-29T17:41:50.225Z,13.75
2023-04-29T17:46:51.183Z,13.6875
2023-04-29T17:51:51.983Z,13.3125
2023-04-29T17:56:52.960Z,13.375
2023-04-29T18:01:53.890Z,13.1875
2023-04-29T18:06:54.916Z,13
2023-04-29T18:11:55.983Z,13.0625
2023-04-29T18:16:57.025Z,12.875
2023-04-29T18:21:57.996Z,12.8125
2023-04-29T18:26:58.936Z,12.625
2023-04-29T18:31:59.889Z,12.3125
2023-04-29T18:37:00.905Z,12.125
2023-04-29T18:42:01.874Z,12.125
2023-04-29T18:47:02.946Z,11.875
2023-04-29T18:52:03.850Z,11.875
2023-04-29T18:57:05.241Z,12.0625
2023-04-29T19:02:06.095Z,11.9375
2023-04-29T19:07:07.031Z,11.875
2023-04-29T19:12:07.817Z,11.8125
2023-04-29T19:17:08.881Z,11.5
2023-04-29T19:22:09.897Z,11.375
2023-04-29T19:27:10.987Z,11.4375
2023-04-29T19:32:11.841Z,11.375
2023-04-29T19:37:12.935Z,11.1875
2023-04-29T19:42:13.880Z,11.0625
2023-04-29T19:47:14.810Z,11.0625
2023-04-29T19:52:15.913Z,11.3125
2023-04-29T19:57:17.802Z,11.3125
2023-04-29T20:02:17.605Z,11.375
2023-04-29T20:07:18.566Z,11.4375
2023-04-29T20:12:19.502Z,11.1875
2023-04-29T20:17:20.565Z,11.25
2023-04-29T20:22:21.664Z,11.0625
2023-04-29T20:27:22.481Z,10.875
2023-04-29T20:32:23.669Z,11
2023-04-29T20:37:24.575Z,10.9375
2023-04-29T20:42:25.611Z,10.9375
2023-04-29T20:47:26.467Z,10.75
2023-04-29T20:52:27.525Z,10.625
2023-04-29T20:57:29.018Z,10.5625
2023-04-29T21:02:29.518Z,10.6875
2023-04-29T21:07:30.496Z,10.75
2023-04-29T21:12:31.629Z,10.625
2023-04-29T21:17:33.171Z,10.4375
2023-04-29T21:22:33.657Z,10.5625
2023-04-29T21:27:34.867Z,10.5625
2023-04-29T21:32:35.283Z,10.6875
2023-04-29T21:37:36.457Z,10.5625
2023-04-29T21:42:37.319Z,10.4375
2023-04-29T21:47:38.256Z,10.375
2023-04-29T21:52:39.269Z,10.3125
2023-04-29T21:57:44.712Z,10.1875
2023-04-29T22:02:41.153Z,10.125
2023-04-29T22:07:42.099Z,10.0625
2023-04-29T22:12:43.158Z,10
2023-04-29T22:17:44.239Z,9.875
2023-04-29T22:22:45.018Z,9.75
2023-04-29T22:27:45.998Z,9.625
2023-04-29T22:32:46.781Z,9.5625
2023-04-29T22:37:47.610Z,9.375
2023-04-29T22:42:48.291Z,9.3125
2023-04-29T22:47:49.148Z,9.25
2023-04-29T22:52:50.024Z,9.25
2023-04-29T22:57:51.521Z,9.0625
2023-04-29T23:02:51.907Z,9
2023-04-29T23:07:53.030Z,8.9375
2023-04-29T23:12:53.852Z,8.8125
2023-04-29T23:17:54.704Z,8.8125
2023-04-29T23:22:55.869Z,8.6875
2023-04-29T23:27:56.877Z,8.5625
2023-04-29T23:32:57.966Z,8.625
2023-04-29T23:37:58.813Z,8.5
2023-04-29T23:42:59.831Z,8.5
2023-04-29T23:48:00.692Z,8.375
2023-04-29T23:53:01.510Z,8.3125
2023-04-29T23:58:03.022Z,8.25
